createdAt,value
2019-03-06T00:00:55.447Z,61.20
2019-03-06T00:03:25.111Z,61.20
2019-03-06T00:05:54.739Z,61.20
2019-03-06T00:08:24.778Z,61.10
2019-03-06T00:10:54.067Z,61.30
2019-03-06T00:13:23.253Z,61.20
2019-03-06T00:15:52.713Z,61.20
2019-03-06T00:18:22.099Z,61.30
2019-03-06T00:20:51.470Z,61.20
2019-03-06T00:23:20.866Z,61.20
2019-03-06T00:25:50.385Z,61.20
2019-03-06T00:28:19.876Z,61.30
2019-03-06T00:30:49.365Z,61.40
2019-03-06T00:33:18.643Z,61.50
2019-03-06T00:35:49.665Z,61.50
2019-03-06T00:38:19.117Z,61.50
2019-03-06T00:41:07.511Z,61.50
2019-03-06T00:43:37.248Z,61.40
2019-03-06T00:46:06.626Z,61.50
2019-03-06T00:48:35.961Z,61.60
2019-03-06T00:51:05.266Z,61.60
2019-03-06T00:53:34.594Z,61.60
2019-03-06T00:56:04.963Z,61.60
2019-03-06T00:58:34.373Z,61.60
2019-03-06T01:01:03.730Z,61.70
2019-03-06T01:03:33.217Z,61.70
2019-03-06T01:06:02.653Z,61.60
2019-03-06T01:08:32.031Z,61.70
2019-03-06T01:11:01.504Z,61.70
2019-03-06T01:13:30.858Z,61.80
2019-03-06T01:16:00.275Z,61.70
2019-03-06T01:18:29.610Z,61.80
2019-03-06T01:20:58.907Z,61.80
2019-03-06T01:23:28.609Z,61.80
2019-03-06T01:25:57.902Z,61.80
2019-03-06T01:28:27.130Z,61.90
2019-03-06T01:30:56.520Z,61.90
2019-03-06T01:33:31.736Z,62.00
2019-03-06T01:36:16.121Z,62.00
2019-03-06T01:39:10.334Z,62.00
2019-03-06T01:42:06.551Z,62.10
2019-03-06T01:44:48.872Z,62.10
2019-03-06T01:47:18.725Z,62.20
2019-03-06T01:49:47.982Z,62.20
2019-03-06T01:52:17.302Z,62.30
2019-03-06T01:54:47.389Z,62.30
2019-03-06T01:57:16.900Z,62.30
2019-03-06T01:59:46.317Z,62.40
2019-03-06T02:02:15.688Z,62.50
2019-03-06T02:04:45.105Z,62.60
2019-03-06T02:07:14.706Z,62.60
2019-03-06T02:09:44.573Z,62.70
2019-03-06T02:12:13.989Z,62.70
2019-03-06T02:14:43.277Z,62.70
2019-03-06T02:17:12.518Z,62.80
2019-03-06T02:19:41.880Z,62.80
2019-03-06T02:22:11.218Z,62.90
2019-03-06T02:24:40.547Z,62.80
2019-03-06T02:27:09.996Z,62.90
2019-03-06T02:29:39.337Z,62.90
2019-03-06T02:32:08.829Z,62.90
2019-03-06T02:34:38.358Z,63.00
2019-03-06T02:37:07.816Z,63.00
2019-03-06T02:39:37.103Z,63.00
2019-03-06T02:42:06.477Z,63.00
2019-03-06T02:44:35.839Z,63.10
2019-03-06T02:47:05.284Z,63.20
2019-03-06T02:49:34.714Z,63.20
2019-03-06T02:52:03.936Z,63.30
2019-03-06T02:54:37.257Z,63.40
2019-03-06T02:57:06.732Z,63.40
2019-03-06T03:00:04.106Z,63.40
2019-03-06T03:02:40.904Z,63.50
2019-03-06T03:05:26.386Z,63.60
2019-03-06T03:07:55.731Z,63.60
2019-03-06T03:10:25.565Z,63.70
2019-03-06T03:12:55.004Z,63.80
2019-03-06T03:15:24.198Z,63.80
2019-03-06T03:17:53.591Z,63.90
2019-03-06T03:20:23.109Z,63.90
2019-03-06T03:22:52.591Z,63.90
2019-03-06T03:25:21.884Z,63.90
2019-03-06T03:27:51.135Z,64.00
2019-03-06T03:30:20.458Z,64.00
2019-03-06T03:32:49.809Z,64.00
2019-03-06T03:35:19.274Z,64.10
2019-03-06T03:37:48.553Z,64.10
2019-03-06T03:40:17.871Z,64.10
2019-03-06T03:42:47.140Z,64.20
2019-03-06T03:45:16.398Z,64.30
2019-03-06T03:47:45.815Z,64.20
2019-03-06T03:50:15.301Z,64.20
2019-03-06T03:52:45.034Z,64.30
2019-03-06T03:55:14.588Z,64.30
2019-03-06T03:57:44.055Z,64.40
2019-03-06T04:00:14.153Z,64.50
2019-03-06T04:02:44.565Z,64.50
2019-03-06T04:05:14.445Z,64.50
2019-03-06T04:07:43.870Z,64.60
2019-03-06T04:10:13.342Z,64.60
2019-03-06T04:12:42.613Z,64.60
2019-03-06T04:15:12.032Z,64.70
2019-03-06T04:17:41.454Z,64.70
2019-03-06T04:20:11.614Z,64.70
2019-03-06T04:22:40.927Z,64.80
2019-03-06T04:25:10.277Z,64.90
2019-03-06T04:27:39.746Z,64.80
2019-03-06T04:30:11.473Z,64.80
2019-03-06T04:32:40.721Z,64.80
2019-03-06T04:35:10.067Z,64.80
2019-03-06T04:37:39.391Z,64.80
2019-03-06T04:40:08.823Z,64.90
2019-03-06T04:42:38.211Z,64.90
2019-03-06T04:45:07.672Z,64.90
2019-03-06T04:47:36.981Z,65.00
2019-03-06T04:50:07.183Z,65.00
2019-03-06T04:52:36.508Z,65.00
2019-03-06T04:55:06.402Z,65.10
2019-03-06T04:57:35.786Z,65.10
2019-03-06T05:00:05.518Z,65.00
2019-03-06T05:02:34.822Z,65.10
2019-03-06T05:05:04.116Z,65.10
2019-03-06T05:07:33.333Z,65.30
2019-03-06T05:10:02.759Z,65.40
2019-03-06T05:12:32.268Z,65.30
2019-03-06T05:15:01.910Z,65.30
2019-03-06T05:17:45.995Z,65.30
2019-03-06T05:20:16.011Z,65.40
2019-03-06T05:22:45.477Z,65.40
2019-03-06T05:25:14.859Z,65.40
2019-03-06T05:27:44.838Z,65.40
2019-03-06T05:30:16.325Z,65.40
2019-03-06T05:32:46.446Z,65.40
2019-03-06T05:35:19.809Z,65.50
2019-03-06T05:38:19.051Z,65.50
2019-03-06T05:40:48.374Z,65.40
2019-03-06T05:43:17.758Z,65.60
2019-03-06T05:45:47.590Z,65.60
2019-03-06T05:48:17.835Z,65.70
2019-03-06T05:50:47.325Z,65.70
2019-03-06T05:53:16.756Z,65.60
2019-03-06T05:55:46.040Z,65.60
2019-03-06T05:58:15.349Z,65.60
2019-03-06T06:00:44.693Z,65.70
2019-03-06T06:03:14.233Z,65.70
2019-03-06T06:05:44.074Z,65.70
2019-03-06T06:08:13.317Z,65.80
2019-03-06T06:10:42.660Z,65.80
2019-03-06T06:13:12.877Z,65.90
2019-03-06T06:15:42.318Z,65.90
2019-03-06T06:18:11.840Z,65.90
2019-03-06T06:20:41.328Z,66.00
2019-03-06T06:23:28.172Z,66.10
2019-03-06T06:25:57.550Z,66.10
2019-03-06T06:28:27.097Z,66.10
2019-03-06T06:30:57.675Z,66.10
2019-03-06T06:33:27.078Z,66.10
2019-03-06T06:35:56.411Z,66.20
2019-03-06T06:38:25.694Z,66.20
2019-03-06T06:40:55.209Z,66.30
2019-03-06T06:43:24.691Z,66.40
2019-03-06T06:45:54.194Z,66.40
2019-03-06T06:48:25.270Z,66.40
2019-03-06T06:51:28.315Z,66.40
2019-03-06T06:54:14.027Z,66.50
2019-03-06T06:57:16.174Z,66.40
2019-03-06T06:59:52.089Z,66.50
2019-03-06T07:03:17.503Z,66.50
2019-03-06T07:05:52.074Z,66.50
2019-03-06T07:08:40.498Z,66.60
2019-03-06T07:11:46.823Z,66.60
2019-03-06T07:14:35.203Z,66.60
2019-03-06T07:17:35.917Z,66.60
2019-03-06T07:20:13.886Z,66.60
2019-03-06T07:22:53.943Z,66.60
2019-03-06T07:25:37.567Z,66.60
2019-03-06T07:28:15.893Z,66.60
2019-03-06T07:31:02.894Z,66.60
2019-03-06T07:34:06.121Z,66.60
2019-03-06T07:36:44.933Z,66.80
2019-03-06T07:39:34.143Z,66.70
2019-03-06T07:42:25.777Z,66.70
2019-03-06T07:46:01.321Z,66.70
2019-03-06T07:49:01.021Z,66.80
2019-03-06T07:51:49.304Z,66.80
2019-03-06T07:54:40.515Z,66.80
2019-03-06T07:57:37.869Z,66.70
2019-03-06T08:00:19.183Z,66.70
2019-03-06T08:03:11.873Z,66.70
2019-03-06T08:05:41.168Z,66.80
2019-03-06T08:08:10.476Z,66.60
2019-03-06T08:10:41.007Z,66.50
2019-03-06T08:13:33.811Z,66.40
2019-03-06T08:16:20.858Z,66.50
2019-03-06T08:19:12.210Z,66.50
2019-03-06T08:22:03.079Z,66.40
2019-03-06T08:24:37.788Z,66.50
2019-03-06T08:27:07.104Z,66.40
2019-03-06T08:29:36.627Z,66.40
2019-03-06T08:32:16.326Z,66.40
2019-03-06T08:34:45.741Z,66.40
2019-03-06T08:37:15.226Z,66.40
2019-03-06T08:39:44.478Z,66.30
2019-03-06T08:42:13.786Z,66.30
2019-03-06T08:44:43.554Z,66.20
2019-03-06T08:47:30.589Z,66.20
2019-03-06T08:50:24.714Z,66.20
2019-03-06T08:53:24.959Z,66.20
2019-03-06T08:55:59.712Z,66.10
2019-03-06T08:58:47.854Z,66.10
2019-03-06T09:01:41.936Z,66.10
2019-03-06T09:04:30.293Z,66.00
2019-03-06T09:07:15.563Z,66.10
2019-03-06T09:10:02.661Z,65.90
2019-03-06T09:12:41.275Z,65.90
2019-03-06T09:15:32.762Z,65.90
2019-03-06T09:18:17.245Z,65.90
2019-03-06T09:21:02.137Z,65.90
2019-03-06T09:23:50.320Z,65.90
2019-03-06T09:26:50.917Z,65.90
2019-03-06T09:29:26.950Z,65.80
2019-03-06T09:32:04.335Z,65.80
2019-03-06T09:34:45.641Z,65.80
2019-03-06T09:37:25.820Z,65.80
2019-03-06T09:40:14.733Z,65.80
2019-03-06T09:43:01.515Z,65.70
2019-03-06T09:45:38.675Z,65.70
2019-03-06T09:48:30.110Z,65.70
2019-03-06T09:51:24.671Z,65.60
2019-03-06T09:54:11.571Z,65.70
2019-03-06T09:56:59.949Z,65.60
2019-03-06T09:59:47.497Z,65.50
2019-03-06T10:02:41.562Z,65.50
2019-03-06T10:05:21.313Z,65.50
2019-03-06T10:08:12.366Z,65.40
2019-03-06T10:10:57.495Z,65.50
2019-03-06T10:13:34.366Z,65.40
2019-03-06T10:16:12.438Z,65.30
2019-03-06T10:19:00.880Z,65.40
2019-03-06T10:21:30.357Z,65.30
2019-03-06T10:23:59.633Z,65.40
2019-03-06T10:26:29.474Z,65.20
2019-03-06T10:28:58.791Z,65.20
2019-03-06T10:31:28.273Z,65.20
2019-03-06T10:33:57.611Z,65.30
2019-03-06T10:36:26.893Z,65.20
2019-03-06T10:38:56.173Z,65.20
2019-03-06T10:41:25.870Z,65.20
2019-03-06T10:43:55.257Z,65.20
2019-03-06T10:46:24.614Z,65.20
2019-03-06T10:48:54.009Z,65.20
2019-03-06T10:51:23.288Z,65.20
2019-03-06T10:53:52.806Z,65.20
2019-03-06T10:56:22.341Z,65.20
2019-03-06T10:58:51.931Z,65.20
2019-03-06T11:01:21.537Z,65.20
2019-03-06T11:04:00.158Z,65.30
2019-03-06T11:06:29.581Z,65.20
2019-03-06T11:08:58.944Z,65.20
2019-03-06T11:11:28.926Z,65.20
2019-03-06T11:14:05.934Z,65.10
2019-03-06T11:16:29.215Z,65.10
2019-03-06T11:19:00.382Z,65.10
2019-03-06T11:21:29.845Z,65.10
2019-03-06T11:23:59.169Z,65.10
2019-03-06T11:26:28.399Z,65.10
2019-03-06T11:28:57.767Z,65.10
2019-03-06T11:31:27.115Z,65.10
2019-03-06T11:33:56.477Z,65.10
2019-03-06T11:36:25.917Z,65.10
2019-03-06T11:38:55.416Z,65.10
2019-03-06T11:41:24.908Z,65.10
2019-03-06T11:43:54.554Z,65.10
2019-03-06T11:46:23.803Z,65.10
2019-03-06T11:48:53.178Z,65.10
2019-03-06T11:51:22.481Z,65.10
2019-03-06T11:53:52.674Z,65.00
2019-03-06T11:56:22.149Z,65.00
2019-03-06T11:58:51.959Z,65.00
2019-03-06T12:01:23.104Z,65.00
2019-03-06T12:03:52.445Z,65.00
2019-03-06T12:06:21.834Z,65.00
2019-03-06T12:08:51.289Z,64.90
2019-03-06T12:11:20.655Z,65.00
2019-03-06T12:13:50.136Z,65.00
2019-03-06T12:16:20.114Z,65.00
2019-03-06T12:18:49.638Z,64.90
2019-03-06T12:21:19.127Z,64.90
2019-03-06T12:23:48.511Z,64.90
2019-03-06T12:26:17.798Z,64.80
2019-03-06T12:28:47.799Z,64.90
2019-03-06T12:31:17.432Z,64.90
2019-03-06T12:33:46.694Z,64.90
2019-03-06T12:36:15.999Z,64.90
2019-03-06T12:38:45.246Z,64.80
2019-03-06T12:41:16.375Z,64.80
2019-03-06T12:43:45.800Z,64.80
2019-03-06T12:46:25.157Z,64.80
2019-03-06T12:49:15.180Z,64.80
2019-03-06T12:51:53.809Z,64.80
2019-03-06T12:54:15.591Z,64.80
2019-03-06T12:56:46.044Z,64.80
2019-03-06T12:59:15.386Z,64.80
2019-03-06T13:01:44.907Z,64.80
2019-03-06T13:04:14.268Z,64.80
2019-03-06T13:06:43.692Z,64.80
2019-03-06T13:09:18.455Z,64.80
2019-03-06T13:11:47.862Z,64.80
2019-03-06T13:14:17.330Z,64.80
2019-03-06T13:16:46.716Z,64.80
2019-03-06T13:19:16.114Z,64.80
2019-03-06T13:21:45.467Z,64.80
2019-03-06T13:24:15.310Z,64.80
2019-03-06T13:26:44.639Z,64.80
2019-03-06T13:29:13.909Z,64.80
2019-03-06T13:31:43.180Z,64.80
2019-03-06T13:34:21.739Z,64.80
2019-03-06T13:36:50.957Z,64.70
2019-03-06T13:39:20.379Z,64.80
2019-03-06T13:41:49.632Z,64.80
2019-03-06T13:44:19.130Z,64.80
2019-03-06T13:46:48.655Z,64.70
2019-03-06T13:49:17.976Z,64.70
2019-03-06T13:51:47.281Z,64.70
2019-03-06T13:54:16.621Z,64.70
2019-03-06T13:56:45.889Z,64.70
2019-03-06T13:59:17.086Z,64.70
2019-03-06T14:01:46.361Z,64.70
2019-03-06T14:04:15.873Z,64.70
2019-03-06T14:06:45.436Z,64.70
2019-03-06T14:09:15.267Z,64.70
2019-03-06T14:11:44.954Z,64.70
2019-03-06T14:14:14.374Z,64.70
2019-03-06T14:16:44.638Z,64.70
2019-03-06T14:19:14.132Z,64.70
2019-03-06T14:21:43.581Z,64.70
2019-03-06T14:24:12.890Z,64.70
2019-03-06T14:26:42.263Z,64.70
2019-03-06T14:29:11.722Z,64.70
2019-03-06T14:31:41.267Z,64.70
2019-03-06T14:34:10.645Z,64.60
2019-03-06T14:36:39.987Z,64.60
2019-03-06T14:39:40.845Z,64.60
2019-03-06T14:42:10.194Z,64.50
2019-03-06T14:44:39.715Z,64.60
2019-03-06T14:47:09.159Z,64.50
2019-03-06T14:49:38.523Z,64.50
2019-03-06T14:52:08.445Z,64.50
2019-03-06T14:54:37.837Z,64.50
2019-03-06T14:57:07.162Z,64.60
2019-03-06T14:59:36.502Z,64.60
2019-03-06T15:02:06.070Z,64.60
2019-03-06T15:04:35.601Z,64.60
2019-03-06T15:07:06.313Z,64.60
2019-03-06T15:09:36.769Z,64.50
2019-03-06T15:12:06.119Z,64.60
2019-03-06T15:14:36.481Z,64.60
2019-03-06T15:17:06.733Z,64.60
2019-03-06T15:19:36.111Z,64.60
2019-03-06T15:22:05.574Z,64.70
2019-03-06T15:24:41.341Z,64.70
2019-03-06T15:27:06.183Z,64.70
2019-03-06T15:29:35.691Z,64.70
2019-03-06T15:32:04.933Z,64.70
2019-03-06T15:34:34.314Z,64.80
2019-03-06T15:37:04.594Z,64.80
2019-03-06T15:39:42.570Z,64.80
2019-03-06T15:42:11.432Z,64.90
2019-03-06T15:44:40.915Z,64.90
2019-03-06T15:47:10.430Z,64.90
2019-03-06T15:49:39.914Z,65.00
2019-03-06T15:52:11.039Z,65.00
2019-03-06T15:54:40.960Z,65.10
2019-03-06T15:57:10.302Z,65.00
2019-03-06T15:59:40.033Z,65.00
2019-03-06T16:02:09.379Z,65.10
2019-03-06T16:04:38.897Z,65.20
2019-03-06T16:07:08.389Z,65.20
2019-03-06T16:09:38.194Z,65.20
2019-03-06T16:12:07.561Z,65.10
2019-03-06T16:14:38.147Z,65.20
2019-03-06T16:17:07.466Z,65.20
2019-03-06T16:19:36.826Z,65.30
2019-03-06T16:22:06.176Z,65.30
2019-03-06T16:24:37.566Z,65.30
2019-03-06T16:27:06.763Z,65.30
2019-03-06T16:29:37.746Z,65.40
2019-03-06T16:32:07.997Z,65.40
2019-03-06T16:34:37.388Z,65.50
2019-03-06T16:37:07.082Z,65.50
2019-03-06T16:39:37.942Z,65.50
2019-03-06T16:42:07.326Z,65.50
2019-03-06T16:44:36.804Z,65.50
2019-03-06T16:47:06.929Z,65.60
2019-03-06T16:49:36.522Z,65.60
2019-03-06T16:52:06.927Z,65.60
2019-03-06T16:54:36.193Z,65.60
2019-03-06T16:57:05.550Z,65.70
2019-03-06T16:59:34.901Z,65.70
2019-03-06T17:02:04.318Z,65.70
2019-03-06T17:04:34.739Z,65.80
2019-03-06T17:07:04.223Z,65.90
2019-03-06T17:09:33.677Z,65.90
2019-03-06T17:12:04.023Z,66.00
2019-03-06T17:14:33.359Z,66.10
2019-03-06T17:17:02.772Z,66.00
2019-03-06T17:19:32.153Z,66.00
2019-03-06T17:22:01.605Z,66.00
2019-03-06T17:24:30.944Z,66.20
2019-03-06T17:27:00.239Z,66.20
2019-03-06T17:29:29.614Z,66.30
2019-03-06T17:31:59.527Z,66.20
2019-03-06T17:34:29.054Z,66.20
2019-03-06T17:36:58.517Z,66.30
2019-03-06T17:39:28.020Z,66.30
2019-03-06T17:41:57.327Z,66.40
2019-03-06T17:44:26.863Z,66.40
2019-03-06T17:46:56.313Z,66.40
2019-03-06T17:49:25.896Z,66.40
2019-03-06T17:51:55.589Z,66.50
2019-03-06T17:54:24.996Z,66.40
2019-03-06T17:56:54.352Z,66.40
2019-03-06T17:59:23.736Z,66.50
2019-03-06T18:01:55.182Z,66.50
2019-03-06T18:04:25.682Z,66.50
2019-03-06T18:06:54.994Z,66.50
2019-03-06T18:09:24.532Z,66.60
2019-03-06T18:11:54.023Z,66.50
2019-03-06T18:14:23.493Z,66.60
2019-03-06T18:16:52.741Z,66.70
2019-03-06T18:19:22.134Z,66.70
2019-03-06T18:21:51.734Z,66.70
2019-03-06T18:24:21.113Z,66.70
2019-03-06T18:26:50.365Z,66.70
2019-03-06T18:29:20.104Z,66.80
2019-03-06T18:31:49.398Z,66.70
2019-03-06T18:34:18.684Z,66.90
2019-03-06T18:36:48.149Z,66.90
2019-03-06T18:39:18.297Z,67.00
2019-03-06T18:41:48.180Z,67.00
2019-03-06T18:44:17.623Z,67.00
2019-03-06T18:46:47.055Z,67.10
2019-03-06T18:49:16.388Z,67.10
2019-03-06T18:51:45.860Z,67.10
2019-03-06T18:54:15.152Z,67.10
2019-03-06T18:56:44.615Z,67.10
2019-03-06T18:59:13.768Z,67.30
2019-03-06T19:01:43.087Z,67.30
2019-03-06T19:04:12.886Z,67.50
2019-03-06T19:06:42.314Z,67.40
2019-03-06T19:09:11.779Z,67.40
2019-03-06T19:11:42.093Z,67.40
2019-03-06T19:14:11.406Z,67.60
2019-03-06T19:16:41.171Z,67.70
2019-03-06T19:19:10.658Z,67.90
2019-03-06T19:21:40.155Z,67.70
2019-03-06T19:24:09.630Z,67.70
2019-03-06T19:26:39.319Z,67.80
2019-03-06T19:29:08.709Z,68.00
2019-03-06T19:31:38.214Z,67.90
2019-03-06T19:34:07.535Z,68.00
2019-03-06T19:36:36.954Z,68.20
2019-03-06T19:39:06.985Z,68.00
2019-03-06T19:41:37.289Z,68.10
2019-03-06T19:44:06.703Z,68.20
2019-03-06T19:46:35.871Z,68.10
2019-03-06T19:49:06.026Z,68.10
2019-03-06T19:51:35.463Z,68.50
2019-03-06T19:54:04.947Z,68.40
2019-03-06T19:56:34.441Z,68.40
2019-03-06T19:59:03.754Z,68.50
2019-03-06T20:01:32.972Z,68.50
2019-03-06T20:04:02.340Z,68.60
2019-03-06T20:06:31.642Z,68.40
2019-03-06T20:09:01.018Z,68.50
2019-03-06T20:11:31.908Z,68.60
2019-03-06T20:14:01.353Z,68.70
2019-03-06T20:16:30.635Z,68.70
2019-03-06T20:18:59.962Z,68.70
2019-03-06T20:21:29.278Z,68.80
2019-03-06T20:23:58.619Z,68.90
2019-03-06T20:26:28.408Z,68.80
2019-03-06T20:28:58.935Z,68.90
2019-03-06T20:31:28.441Z,69.20
2019-03-06T20:33:57.787Z,69.10
2019-03-06T20:36:27.114Z,69.00
2019-03-06T20:38:56.412Z,69.10
2019-03-06T20:41:26.170Z,69.10
2019-03-06T20:43:55.576Z,69.20
2019-03-06T20:46:25.001Z,69.30
2019-03-06T20:48:54.422Z,69.30
2019-03-06T20:51:24.610Z,69.30
2019-03-06T20:53:54.040Z,69.30
2019-03-06T20:56:23.703Z,69.50
2019-03-06T20:58:53.104Z,69.30
2019-03-06T21:01:22.521Z,69.40
2019-03-06T21:03:51.919Z,69.50
2019-03-06T21:06:21.381Z,69.50
2019-03-06T21:08:50.706Z,69.50
2019-03-06T21:11:20.035Z,69.40
2019-03-06T21:13:49.510Z,69.60
2019-03-06T21:16:18.953Z,69.50
2019-03-06T21:18:48.255Z,69.60
2019-03-06T21:21:17.529Z,69.50
2019-03-06T21:23:47.194Z,69.60
2019-03-06T21:26:16.616Z,69.60
2019-03-06T21:28:45.945Z,69.60
2019-03-06T21:31:15.487Z,69.50
2019-03-06T21:33:44.958Z,69.50
2019-03-06T21:36:14.475Z,69.60
2019-03-06T21:38:43.989Z,69.60
2019-03-06T21:41:13.327Z,69.60
2019-03-06T21:43:42.695Z,69.60
2019-03-06T21:46:12.085Z,69.80
2019-03-06T21:48:41.571Z,69.80
2019-03-06T21:51:10.831Z,69.70
2019-03-06T21:53:40.171Z,69.80
2019-03-06T21:56:11.532Z,69.90
2019-03-06T21:58:40.539Z,69.80
2019-03-06T22:01:09.849Z,69.80
2019-03-06T22:03:39.260Z,70.00
2019-03-06T22:06:08.847Z,69.90
2019-03-06T22:08:38.205Z,69.90
2019-03-06T22:11:07.540Z,69.80
2019-03-06T22:13:37.022Z,69.90
2019-03-06T22:16:06.374Z,69.90
2019-03-06T22:18:35.827Z,70.10
2019-03-06T22:21:05.287Z,70.10
2019-03-06T22:23:34.587Z,69.90
2019-03-06T22:26:04.012Z,70.10
2019-03-06T22:28:33.457Z,70.20
2019-03-06T22:31:03.321Z,70.20
2019-03-06T22:33:32.698Z,70.10
2019-03-06T22:36:02.259Z,70.00
2019-03-06T22:38:31.674Z,70.20
2019-03-06T22:41:00.975Z,70.30
2019-03-06T22:43:30.334Z,70.50
2019-03-06T22:46:00.137Z,70.20
2019-03-06T22:48:29.411Z,70.20
2019-03-06T22:50:58.735Z,70.30
2019-03-06T22:53:28.265Z,70.30
2019-03-06T22:55:57.629Z,70.30
2019-03-06T22:58:27.121Z,70.20
2019-03-06T23:01:23.203Z,70.40
2019-03-06T23:03:52.633Z,70.30
2019-03-06T23:06:22.243Z,70.30
2019-03-06T23:08:51.758Z,70.40
2019-03-06T23:11:21.235Z,70.60
2019-03-06T23:13:50.561Z,70.60
2019-03-06T23:16:20.057Z,70.50
2019-03-06T23:18:49.573Z,70.50
2019-03-06T23:21:19.057Z,70.60
2019-03-06T23:23:48.266Z,70.70
2019-03-06T23:26:18.100Z,70.80
2019-03-06T23:28:47.602Z,70.70
2019-03-06T23:31:17.075Z,70.80
2019-03-06T23:33:46.266Z,70.70
2019-03-06T23:36:15.962Z,70.80
2019-03-06T23:38:45.490Z,70.80
2019-03-06T23:41:14.921Z,70.70
2019-03-06T23:43:44.551Z,70.80
2019-03-06T23:46:13.919Z,70.80
2019-03-06T23:48:43.436Z,70.90
2019-03-06T23:51:38.400Z,70.80
2019-03-06T23:54:07.853Z,70.70
2019-03-06T23:56:37.373Z,70.80
2019-03-06T23:59:07.313Z,70.90
